createdAt,value
2023-05-04T00:02:11.981Z,7.60
2023-05-04T00:04:39.666Z,7.50
2023-05-04T00:07:08.106Z,7.50
2023-05-04T00:09:35.609Z,7.50
2023-05-04T00:12:03.497Z,7.50
2023-05-04T00:14:31.073Z,7.50
2023-05-04T00:21:54.509Z,7.40
2023-05-04T00:26:49.974Z,7.30
2023-05-04T00:29:17.814Z,7.30
2023-05-04T00:36:42.696Z,7.20
2023-05-04T00:41:38.419Z,7.10
2023-05-04T00:44:06.362Z,7.10
2023-05-04T00:46:34.358Z,7.10
2023-05-04T00:49:02.336Z,7.00
2023-05-04T00:51:30.904Z,7.00
2023-05-04T00:53:59.013Z,7.00
2023-05-04T00:56:29.029Z,7.00
2023-05-04T01:01:26.341Z,6.90
2023-05-04T01:03:56.048Z,6.90
2023-05-04T01:06:48.048Z,6.90
2023-05-04T01:09:31.005Z,6.90
2023-05-04T01:12:10.468Z,6.90
2023-05-04T01:14:40.115Z,7.00
2023-05-04T01:17:08.754Z,6.90
2023-05-04T01:24:33.050Z,6.90
2023-05-04T01:27:08.654Z,6.90
2023-05-04T01:30:00.570Z,6.80
2023-05-04T01:32:29.728Z,6.90
2023-05-04T01:34:59.947Z,6.80
2023-05-04T01:37:27.583Z,6.80
2023-05-04T01:39:55.143Z,6.80
2023-05-04T01:47:19.334Z,6.80
2023-05-04T01:54:44.964Z,6.90
2023-05-04T01:59:40.311Z,6.80
2023-05-04T02:02:09.217Z,7.00
2023-05-04T02:14:29.128Z,6.90
2023-05-04T02:26:50.299Z,7.10
2023-05-04T02:29:17.847Z,7.00
2023-05-04T02:31:45.544Z,7.10
2023-05-04T02:36:47.600Z,7.10
2023-05-04T02:41:43.351Z,7.10
2023-05-04T02:51:35.510Z,7.20
2023-05-04T02:54:03.180Z,7.10
2023-05-04T03:06:22.258Z,7.10
2023-05-04T03:11:17.686Z,7.20
2023-05-04T03:13:45.322Z,7.10
2023-05-04T03:16:12.946Z,7.20
2023-05-04T03:21:26.171Z,7.30
2023-05-04T03:23:54.127Z,7.30
2023-05-04T03:26:21.715Z,7.30
2023-05-04T03:28:50.452Z,7.30
2023-05-04T03:31:18.146Z,7.40
2023-05-04T03:36:17.553Z,7.40
2023-05-04T03:38:45.324Z,7.40
2023-05-04T03:46:10.326Z,7.50
2023-05-04T03:48:37.926Z,7.60
2023-05-04T03:53:35.989Z,7.50
2023-05-04T03:56:03.849Z,7.50
2023-05-04T04:01:03.768Z,7.50
2023-05-04T04:03:32.033Z,7.50
2023-05-04T04:05:59.862Z,7.50
2023-05-04T04:08:27.479Z,7.50
2023-05-04T04:10:55.068Z,7.40
2023-05-04T04:20:46.593Z,7.30
2023-05-04T04:23:14.271Z,7.30
2023-05-04T04:25:44.058Z,7.30
2023-05-04T04:28:13.453Z,7.30
2023-05-04T04:33:10.198Z,7.30
2023-05-04T04:43:03.163Z,7.30
2023-05-04T04:48:01.903Z,7.30
2023-05-04T04:50:30.050Z,7.30
2023-05-04T04:52:57.742Z,7.30
2023-05-04T04:57:53.142Z,7.40
2023-05-04T05:00:22.527Z,7.40
2023-05-04T05:02:50.073Z,7.50
2023-05-04T05:05:18.130Z,7.60
2023-05-04T05:07:45.767Z,7.50
2023-05-04T05:10:13.354Z,7.60
2023-05-04T05:12:41.541Z,7.70
2023-05-04T05:15:09.512Z,7.70
2023-05-04T05:20:12.525Z,7.90
2023-05-04T05:22:40.489Z,7.90
2023-05-04T05:25:08.751Z,8.00
2023-05-04T05:30:06.619Z,8.10
2023-05-04T05:39:58.985Z,8.30
2023-05-04T05:47:22.355Z,8.50
2023-05-04T05:49:49.913Z,8.50
2023-05-04T05:52:18.342Z,8.60
2023-05-04T05:54:45.870Z,8.60
2023-05-04T05:59:44.636Z,8.70
2023-05-04T06:02:14.919Z,8.70
2023-05-04T06:04:43.329Z,8.80
2023-05-04T06:07:11.169Z,8.90
2023-05-04T06:14:40.032Z,9.10
2023-05-04T06:17:07.690Z,9.10
2023-05-04T06:22:04.368Z,9.20
2023-05-04T06:24:32.916Z,9.20
2023-05-04T06:29:29.598Z,9.30
2023-05-04T06:31:57.199Z,9.30
2023-05-04T06:41:48.324Z,9.60
2023-05-04T06:44:18.940Z,9.70
2023-05-04T06:54:10.330Z,9.60
2023-05-04T06:56:39.580Z,9.70
2023-05-04T06:59:08.250Z,9.70
2023-05-04T07:01:36.033Z,9.80
2023-05-04T07:04:03.955Z,9.90
2023-05-04T07:06:32.339Z,10.00
2023-05-04T07:09:00.124Z,10.00
2023-05-04T07:16:24.187Z,10.50
2023-05-04T07:18:51.782Z,10.60
2023-05-04T07:26:17.529Z,11.00
2023-05-04T07:28:45.163Z,11.10
2023-05-04T07:31:14.446Z,11.20
2023-05-04T07:33:42.326Z,11.30
2023-05-04T07:36:10.031Z,11.30
2023-05-04T07:41:07.319Z,11.50
2023-05-04T07:43:34.933Z,11.50
2023-05-04T07:48:31.266Z,11.50
2023-05-04T07:50:58.999Z,11.60
2023-05-04T08:10:44.330Z,12.50
2023-05-04T08:18:07.896Z,13.10
2023-05-04T08:23:04.012Z,13.20
2023-05-04T08:37:55.352Z,13.40
2023-05-04T08:42:52.598Z,13.70
2023-05-04T08:45:20.106Z,13.90
2023-05-04T08:47:47.925Z,14.00
2023-05-04T08:50:15.469Z,14.10
2023-05-04T08:52:47.420Z,14.20
2023-05-04T08:55:17.173Z,14.30
2023-05-04T08:57:45.159Z,14.30
2023-05-04T09:00:15.715Z,14.30
2023-05-04T09:05:12.046Z,14.10
2023-05-04T09:10:08.495Z,14.10
2023-05-04T09:12:37.967Z,14.20
2023-05-04T09:15:18.835Z,14.10
2023-05-04T09:18:03.663Z,14.10
2023-05-04T09:20:42.624Z,14.10
2023-05-04T09:25:55.072Z,14.30
2023-05-04T09:28:35.748Z,14.30
2023-05-04T09:31:04.180Z,14.40
2023-05-04T09:33:32.363Z,14.60
2023-05-04T09:36:12.486Z,14.80
2023-05-04T09:38:40.335Z,15.00
2023-05-04T09:41:07.887Z,15.20
2023-05-04T09:43:40.399Z,15.30
2023-05-04T09:46:17.208Z,15.60
2023-05-04T09:48:56.766Z,15.90
2023-05-04T09:51:27.403Z,16.20
2023-05-04T09:53:55.575Z,16.30
2023-05-04T09:56:26.871Z,16.60
2023-05-04T09:58:59.791Z,17.00
2023-05-04T10:01:30.771Z,17.30
2023-05-04T10:03:59.049Z,17.80
2023-05-04T10:06:30.298Z,18.40
2023-05-04T10:09:00.659Z,19.00
2023-05-04T10:11:30.499Z,19.40
2023-05-04T10:13:58.285Z,19.90
2023-05-04T10:16:57.174Z,20.30
2023-05-04T10:19:40.598Z,20.40
2023-05-04T10:22:11.197Z,20.40
2023-05-04T10:25:00.345Z,20.70
2023-05-04T10:27:49.569Z,21.10
2023-05-04T10:30:21.321Z,21.30
2023-05-04T10:32:56.371Z,21.50
2023-05-04T10:35:25.453Z,21.50
2023-05-04T10:37:54.606Z,21.40
2023-05-04T10:40:36.698Z,21.40
2023-05-04T10:43:05.266Z,21.20
2023-05-04T10:45:42.134Z,20.90
2023-05-04T10:48:10.574Z,20.50
2023-05-04T10:50:43.049Z,20.40
2023-05-04T10:55:40.989Z,20.00
2023-05-04T11:00:46.860Z,19.30
2023-05-04T11:03:15.402Z,19.00
2023-05-04T11:05:50.806Z,18.80
2023-05-04T11:08:26.427Z,18.70
2023-05-04T11:11:05.010Z,18.50
2023-05-04T11:13:41.251Z,18.50
2023-05-04T11:16:12.430Z,19.00
2023-05-04T11:18:41.219Z,19.50
2023-05-04T11:21:09.719Z,19.80
2023-05-04T11:23:38.333Z,19.80
2023-05-04T11:26:09.215Z,19.90
2023-05-04T11:28:37.805Z,20.10
2023-05-04T11:31:19.096Z,20.40
2023-05-04T11:33:52.355Z,20.90
2023-05-04T11:36:21.382Z,21.20
2023-05-04T11:38:49.838Z,21.40
2023-05-04T11:41:17.505Z,21.30
2023-05-04T11:43:46.567Z,21.10
2023-05-04T11:46:16.431Z,21.30
2023-05-04T11:48:44.858Z,21.70
2023-05-04T11:53:41.670Z,21.60
2023-05-04T11:56:09.838Z,21.20
2023-05-04T12:01:05.988Z,20.40
2023-05-04T12:06:07.206Z,20.40
2023-05-04T12:08:36.292Z,20.40
2023-05-04T12:11:26.500Z,20.60
2023-05-04T12:14:10.767Z,21.10
2023-05-04T12:16:39.220Z,21.50
2023-05-04T12:19:12.750Z,21.60
2023-05-04T12:21:52.230Z,21.50
2023-05-04T12:24:24.267Z,21.60
2023-05-04T12:26:51.986Z,22.30
2023-05-04T12:29:19.573Z,23.10
2023-05-04T12:31:47.676Z,23.90
2023-05-04T12:34:15.304Z,24.60
2023-05-04T12:39:12.026Z,25.00
2023-05-04T12:41:40.182Z,25.00
2023-05-04T12:44:09.149Z,24.60
2023-05-04T12:49:05.745Z,23.30
2023-05-04T12:51:33.397Z,22.90
2023-05-04T12:54:01.001Z,23.00
2023-05-04T13:08:48.504Z,25.00
2023-05-04T13:11:19.247Z,24.50
2023-05-04T13:13:46.862Z,24.30
2023-05-04T13:16:40.373Z,24.60
2023-05-04T13:19:08.119Z,24.90
2023-05-04T13:21:35.753Z,24.80
2023-05-04T13:24:03.386Z,24.00
2023-05-04T13:26:30.878Z,23.40
2023-05-04T13:36:22.164Z,22.10
2023-05-04T13:38:49.951Z,22.30
2023-05-04T13:43:45.671Z,23.50
2023-05-04T13:46:13.323Z,23.60
2023-05-04T13:48:41.035Z,23.50
2023-05-04T13:56:05.103Z,22.10
2023-05-04T14:08:25.801Z,22.00
2023-05-04T14:10:53.316Z,21.60
2023-05-04T14:15:49.618Z,21.40
2023-05-04T14:18:17.365Z,21.30
2023-05-04T14:20:44.945Z,21.10
2023-05-04T14:25:42.198Z,20.80
2023-05-04T14:28:09.814Z,20.70
2023-05-04T14:30:37.377Z,20.80
2023-05-04T14:33:05.061Z,20.90
2023-05-04T14:38:00.901Z,21.10
2023-05-04T14:45:27.402Z,20.00
2023-05-04T14:50:22.981Z,19.90
2023-05-04T14:57:46.493Z,19.60
2023-05-04T15:00:15.058Z,19.50
2023-05-04T15:07:40.183Z,19.60
2023-05-04T15:10:09.155Z,19.50
2023-05-04T15:15:06.051Z,19.10
2023-05-04T15:17:33.655Z,18.80
2023-05-04T15:20:02.284Z,18.70
2023-05-04T15:22:30.996Z,18.60
2023-05-04T15:47:26.295Z,17.80
2023-05-04T15:52:22.709Z,17.50
2023-05-04T16:02:16.557Z,17.10
2023-05-04T16:04:44.243Z,17.00
2023-05-04T16:07:11.865Z,16.90
2023-05-04T16:09:39.400Z,16.80
2023-05-04T16:14:36.089Z,16.90
2023-05-04T16:24:28.800Z,17.30
2023-05-04T16:34:19.887Z,17.60
2023-05-04T16:36:47.484Z,17.60
2023-05-04T16:39:16.450Z,17.50
2023-05-04T16:41:46.690Z,17.50
2023-05-04T16:51:42.195Z,17.00
2023-05-04T16:54:09.767Z,16.90
2023-05-04T16:56:37.336Z,16.80
2023-05-04T16:59:05.269Z,16.70
2023-05-04T17:04:01.755Z,16.50
2023-05-04T17:06:29.591Z,16.30
2023-05-04T17:08:57.150Z,16.20
2023-05-04T17:11:24.822Z,16.20
2023-05-04T17:21:16.985Z,16.00
2023-05-04T17:28:40.373Z,16.00
2023-05-04T17:31:12.296Z,16.00
2023-05-04T17:33:40.113Z,16.10
2023-05-04T17:36:08.137Z,16.10
2023-05-04T17:38:35.832Z,16.20
2023-05-04T17:41:04.346Z,16.30
2023-05-04T17:43:33.703Z,16.40
2023-05-04T17:46:02.166Z,16.60
2023-05-04T17:48:32.826Z,16.60
2023-05-04T17:55:57.822Z,16.30
2023-05-04T17:58:26.045Z,16.40
2023-05-04T18:00:53.604Z,16.40
2023-05-04T18:05:49.113Z,16.10
2023-05-04T18:18:08.275Z,15.60
2023-05-04T18:20:36.308Z,15.50
2023-05-04T18:23:03.850Z,15.40
2023-05-04T18:27:59.503Z,15.40
2023-05-04T18:30:27.392Z,15.20
2023-05-04T18:35:22.977Z,15.00
2023-05-04T18:42:46.311Z,14.80
2023-05-04T18:45:13.928Z,14.60
2023-05-04T18:50:10.000Z,14.40
2023-05-04T18:52:37.660Z,14.50
2023-05-04T18:55:05.706Z,14.40
2023-05-04T19:00:01.521Z,14.30
2023-05-04T19:02:30.143Z,14.30
2023-05-04T19:04:57.896Z,14.20
2023-05-04T19:07:25.461Z,14.30
2023-05-04T19:09:53.290Z,14.20
2023-05-04T19:12:21.089Z,14.10
2023-05-04T19:17:18.370Z,14.00
2023-05-04T19:19:46.007Z,14.00
2023-05-04T19:22:15.549Z,13.90
2023-05-04T19:27:11.607Z,13.80
2023-05-04T19:29:39.437Z,13.80
2023-05-04T19:32:19.879Z,13.80
2023-05-04T19:37:18.917Z,13.70
2023-05-04T19:52:07.182Z,13.50
2023-05-04T19:54:35.686Z,13.50
2023-05-04T20:02:00.145Z,13.20
2023-05-04T20:04:28.097Z,13.30
2023-05-04T20:11:51.359Z,13.00
2023-05-04T20:14:18.986Z,12.90
2023-05-04T20:26:40.014Z,12.60
2023-05-04T20:29:07.680Z,12.60
2023-05-04T20:31:35.424Z,12.50
2023-05-04T20:34:03.054Z,12.50
2023-05-04T20:53:46.720Z,12.40
2023-05-04T20:56:14.803Z,12.20
2023-05-04T21:13:30.820Z,12.30
2023-05-04T21:15:59.679Z,12.20
2023-05-04T21:18:27.343Z,12.20
2023-05-04T21:26:03.100Z,11.90
2023-05-04T21:28:31.782Z,11.90
2023-05-04T21:30:59.655Z,11.80
2023-05-04T21:33:27.497Z,11.80
2023-05-04T21:35:55.148Z,11.80
2023-05-04T21:50:42.373Z,12.00
2023-05-04T21:53:09.907Z,12.00
2023-05-04T21:55:37.520Z,12.00
2023-05-04T21:58:05.047Z,12.00
2023-05-04T22:17:48.534Z,12.00
2023-05-04T22:20:16.273Z,12.00
2023-05-04T22:22:44.133Z,12.10
2023-05-04T22:25:11.739Z,12.20
2023-05-04T22:27:39.287Z,12.10
2023-05-04T22:30:07.834Z,12.20
2023-05-04T22:32:35.664Z,12.20
2023-05-04T22:35:03.326Z,12.20
2023-05-04T22:42:29.023Z,12.20
2023-05-04T22:49:56.556Z,12.20
2023-05-04T22:52:24.449Z,12.30
2023-05-04T22:57:20.259Z,12.30
2023-05-04T22:59:47.730Z,12.30
2023-05-04T23:02:15.664Z,12.30
2023-05-04T23:04:43.877Z,12.20
2023-05-04T23:07:12.022Z,12.20
2023-05-04T23:09:43.475Z,12.20
2023-05-04T23:12:11.936Z,12.20
2023-05-04T23:14:39.449Z,12.20
2023-05-04T23:17:07.757Z,12.20
2023-05-04T23:19:35.252Z,12.30
2023-05-04T23:31:54.505Z,12.20
2023-05-04T23:34:22.062Z,12.20
2023-05-04T23:36:49.688Z,12.20
2023-05-04T23:39:17.168Z,12.20
2023-05-04T23:44:12.419Z,12.20
2023-05-04T23:46:39.943Z,12.20
2023-05-04T23:49:07.403Z,12.20
2023-05-04T23:56:31.995Z,12.20
